Goshen, Alabama
Current Conditions -  °F | °C
As of 7:53 PM on Sunday 23 Nov 2014 (Local Time) from KTOI Reporting Station
Broken Clouds Broken Clouds  
Wind Chill: 62°   Ceiling: 1000
Heat Index: 62°   Visibility: 10mi
Dew Point: 60°   Wind: 12mph
Humidity: 93%   Direction: 190°S
Pressure: 29.75"   Gusts: NA
Location:  31.72°N, 86.12°W
Report Text: KTOI 240153Z AUTO 19010KT 10SM BKN010 17/16 A2975 RMK AO2 SLP072 T01670156
Loading
Personal Weather Stations






























Interactive Weather Map New forecast layout! Learn more

10-Day Weather Forecast

Advertisements
Track Severe Weather on mobile